Time;durP1;ratioP1;P1;durP2;ratioP2;P2;SDS_P1;SDS_P2;PMS_P1;PMS_P2;Temp;Humidity;BMP_temperature;BMP_pressure;BME280_temperature;BME280_humidity;BME280_pressure;Samples;Min_cycle;Max_cycle;Signal;HPM_P1;HPM_P2
2023/04/02 00:01:21;;;;;;;7.28;2.70;;;3.50;99.90;;;;;;5132425;28;20050;-83
2023/04/02 00:04:04;;;;;;;6.53;2.30;;;3.50;99.90;;;;;;5125805;28;20546;-82
2023/04/02 00:06:39;;;;;;;7.07;2.50;;;3.30;99.90;;;;;;5128877;28;20055;-83
2023/04/02 00:09:29;;;;;;;5.60;2.45;;;3.30;99.90;;;;;;5115446;28;20100;-82
2023/04/02 00:11:59;;;;;;;7.30;2.22;;;3.20;99.90;;;;;;5131873;28;20048;-82
2023/04/02 00:14:35;;;;;;;4.78;2.30;;;3.10;99.90;;;;;;5115535;28;20043;-82
2023/04/02 00:17:04;;;;;;;8.77;2.50;;;3.30;99.90;;;;;;5131803;28;20062;-82
2023/04/02 00:19:37;;;;;;;5.13;2.50;;;3.10;99.90;;;;;;5115346;28;20039;-82
2023/04/02 00:22:08;;;;;;;6.30;2.30;;;3.00;99.90;;;;;;5131777;28;20408;-82
2023/04/02 00:24:38;;;;;;;6.55;2.60;;;3.30;99.90;;;;;;5131758;28;20081;-82
2023/04/02 00:27:09;;;;;;;5.35;2.22;;;2.90;99.90;;;;;;5131989;28;20088;-82
2023/04/02 00:29:47;;;;;;;7.38;2.58;;;3.30;99.90;;;;;;5131976;28;20457;-82
2023/04/02 00:32:26;;;;;;;6.93;2.60;;;2.90;99.90;;;;;;5131529;28;20046;-82
2023/04/02 00:34:54;;;;;;;11.30;2.95;;;2.80;99.90;;;;;;5131904;28;20040;-82
2023/04/02 00:37:26;;;;;;;6.20;2.35;;;2.80;99.90;;;;;;5132087;28;20071;-82
2023/04/02 00:40:26;;;;;;;7.15;2.63;;;2.70;99.90;;;;;;5131479;28;20045;-82
2023/04/02 00:42:56;;;;;;;6.35;2.55;;;2.70;99.90;;;;;;5110845;28;20504;-82
2023/04/02 00:45:30;;;;;;;7.75;2.55;;;2.70;99.90;;;;;;5111406;28;20040;-82
2023/04/02 00:47:59;;;;;;;6.43;2.40;;;2.60;99.90;;;;;;5111445;28;20143;-82
2023/04/02 00:50:40;;;;;;;7.05;2.40;;;2.60;99.90;;;;;;5107314;28;20442;-82
2023/04/02 00:53:20;;;;;;;4.90;2.38;;;2.60;99.90;;;;;;5110840;28;20036;-82
2023/04/02 00:55:47;;;;;;;7.40;2.42;;;2.80;99.90;;;;;;5110864;28;20134;-82
2023/04/02 00:58:18;;;;;;;8.73;2.80;;;2.50;99.90;;;;;;5094705;28;20512;-82
2023/04/02 01:00:49;;;;;;;6.93;2.22;;;2.50;99.90;;;;;;5127692;28;20036;-83
2023/04/02 01:03:16;;;;;;;7.10;2.70;;;2.40;99.90;;;;;;5094573;28;20040;-82
2023/04/02 01:05:47;;;;;;;6.75;2.42;;;2.70;99.90;;;;;;5126777;28;20040;-82
2023/04/02 01:08:50;;;;;;;5.22;2.53;;;2.70;99.90;;;;;;5147732;28;20047;-82
2023/04/02 01:11:35;;;;;;;5.05;2.38;;;2.30;99.90;;;;;;5108341;28;20510;-82
2023/04/02 01:14:20;;;;;;;9.10;2.55;;;2.30;99.90;;;;;;5148093;28;20454;-82
2023/04/02 01:17:09;;;;;;;6.30;2.67;;;2.30;99.90;;;;;;5127727;28;20503;-83
2023/04/02 01:19:57;;;;;;;6.72;2.78;;;2.30;99.90;;;;;;5148164;28;20040;-82
2023/04/02 01:23:06;;;;;;;7.30;2.78;;;2.30;99.90;;;;;;5128205;28;20070;-82
2023/04/02 01:25:45;;;;;;;7.90;2.05;;;2.20;99.90;;;;;;5083208;28;20056;-82
2023/04/02 01:28:21;;;;;;;6.57;2.30;;;2.60;99.90;;;;;;5130524;28;20035;-83
2023/04/02 01:30:52;;;;;;;5.70;2.20;;;2.20;99.90;;;;;;5129787;28;20036;-82
2023/04/02 01:33:22;;;;;;;4.93;2.05;;;2.50;99.90;;;;;;5130869;28;20474;-82
2023/04/02 01:35:57;;;;;;;6.85;2.17;;;2.30;99.90;;;;;;5147379;28;20063;-82
2023/04/02 01:38:35;;;;;;;8.75;2.45;;;2.30;99.90;;;;;;5130616;28;20036;-82
2023/04/02 01:41:12;;;;;;;7.93;2.42;;;2.00;99.90;;;;;;5130452;28;20046;-82
2023/04/02 01:43:48;;;;;;;7.55;1.90;;;2.00;99.90;;;;;;5130541;28;20507;-82
2023/04/02 01:46:33;;;;;;;6.38;1.98;;;2.00;99.90;;;;;;5130286;28;20044;-82
2023/04/02 01:49:10;;;;;;;5.03;2.03;;;2.00;99.90;;;;;;5130200;28;20043;-82
2023/04/02 01:51:44;;;;;;;7.85;2.20;;;2.00;99.90;;;;;;5130610;28;20031;-82
2023/04/02 01:54:14;;;;;;;4.63;2.17;;;2.00;99.90;;;;;;5130428;28;20039;-82
2023/04/02 01:56:42;;;;;;;6.50;2.13;;;1.90;99.90;;;;;;5130306;28;20071;-82
2023/04/02 01:59:10;;;;;;;5.78;2.22;;;1.80;99.90;;;;;;5113729;28;20416;-82
2023/04/02 02:02:02;;;;;;;5.75;2.10;;;1.80;99.90;;;;;;5123653;28;20036;-82
2023/04/02 02:04:29;;;;;;;6.97;1.80;;;1.80;99.90;;;;;;5105191;28;20047;-82
2023/04/02 02:07:01;;;;;;;7.05;2.47;;;2.00;99.90;;;;;;5093848;28;20048;-82
2023/04/02 02:09:34;;;;;;;6.50;2.00;;;2.20;99.90;;;;;;5109827;28;20411;-82
2023/04/02 02:12:02;;;;;;;3.85;1.40;;;1.90;99.90;;;;;;5092789;28;20129;-82
2023/04/02 02:14:30;;;;;;;8.48;1.80;;;1.70;99.90;;;;;;5101442;28;20150;-82
2023/04/02 02:17:00;;;;;;;5.10;1.65;;;1.60;99.90;;;;;;5126084;28;20052;-83
2023/04/02 02:19:31;;;;;;;7.32;1.67;;;1.60;99.90;;;;;;5109525;28;20400;-82
2023/04/02 02:22:38;;;;;;;5.85;2.08;;;1.80;99.90;;;;;;5126772;28;20042;-83
2023/04/02 02:25:09;;;;;;;;;;;2.20;99.90;;;;;;5049082;28;20120;-82
2023/04/02 02:27:44;;;;;;;4.43;1.70;;;1.50;99.90;;;;;;5032320;28;20356;-83
2023/04/02 02:30:11;;;;;;;6.95;1.80;;;1.50;99.90;;;;;;5075890;28;20065;-82
2023/04/02 02:32:46;;;;;;;4.80;1.40;;;1.50;99.90;;;;;;5109926;28;20040;-82
2023/04/02 02:35:25;;;;;;;6.10;1.70;;;1.50;99.90;;;;;;5117898;28;20040;-82
2023/04/02 02:38:21;;;;;;;3.67;1.30;;;1.70;99.90;;;;;;5109926;28;20034;-83
2023/04/02 02:40:52;;;;;;;4.13;1.55;;;1.40;99.90;;;;;;5126552;28;20075;-82
2023/04/02 02:43:19;;;;;;;7.65;1.40;;;1.40;99.90;;;;;;5109436;28;20039;-82
2023/04/02 02:45:47;;;;;;;5.00;1.33;;;1.40;99.90;;;;;;5092740;28;20411;-82
2023/04/02 02:48:18;;;;;;;3.53;1.30;;;1.40;99.90;;;;;;5096027;28;20921;-82
2023/04/02 02:50:45;;;;;;;6.22;1.40;;;1.40;99.90;;;;;;5126576;28;20050;-82
2023/04/02 02:53:21;;;;;;;3.35;1.42;;;1.40;99.90;;;;;;5109262;28;20040;-83
2023/04/02 02:55:56;;;;;;;2.65;1.05;;;1.60;99.90;;;;;;5109422;28;20102;-82
2023/04/02 02:58:28;;;;;;;5.55;1.60;;;2.20;99.90;;;;;;5108919;28;20048;-82
2023/04/02 03:00:55;;;;;;;5.65;1.35;;;1.30;99.90;;;;;;5125095;28;20514;-82
2023/04/02 03:03:31;;;;;;;4.55;1.40;;;1.30;99.90;;;;;;5112729;28;20122;-82
2023/04/02 03:06:02;;;;;;;3.45;1.30;;;1.30;99.90;;;;;;5129065;28;20155;-83
2023/04/02 03:08:35;;;;;;;4.25;1.20;;;1.20;99.90;;;;;;5129262;28;20473;-82
2023/04/02 03:11:45;;;;;;;3.03;1.20;;;2.10;99.90;;;;;;5129240;28;20039;-82
2023/04/02 03:14:19;;;;;;;5.28;1.58;;;1.20;99.90;;;;;;5128829;28;20039;-83
2023/04/02 03:16:51;;;;;;;2.92;1.30;;;1.20;99.90;;;;;;5128910;28;20051;-82
2023/04/02 03:19:27;;;;;;;6.47;1.70;;;1.20;99.90;;;;;;5129106;28;20475;-82
2023/04/02 03:22:17;;;;;;;;;;;1.30;99.90;;;;;;5130005;28;20047;-82
2023/04/02 03:25:17;;;;;;;5.50;1.73;;;1.20;99.90;;;;;;5115419;28;19941;-82
2023/04/02 03:27:48;;;;;;;3.88;1.27;;;1.20;99.90;;;;;;5101656;28;20109;-82
2023/04/02 03:30:29;;;;;;;4.93;1.40;;;1.10;99.90;;;;;;5108728;28;20400;-82
2023/04/02 03:33:37;;;;;;;8.57;2.00;;;1.10;99.90;;;;;;5122979;28;20039;-82
2023/04/02 03:36:19;;;;;;;4.22;1.75;;;1.10;99.90;;;;;;5097629;28;20086;-83
2023/04/02 03:39:20;;;;;;;5.15;1.35;;;1.00;99.90;;;;;;5133091;28;20122;-82
2023/04/02 03:41:53;;;;;;;3.58;1.35;;;1.10;99.90;;;;;;5132853;28;20066;-82
2023/04/02 03:44:44;;;;;;;2.97;1.17;;;1.00;99.90;;;;;;5132696;28;20035;-82
2023/04/02 03:47:36;;;;;;;5.25;1.33;;;1.10;99.90;;;;;;5132640;28;20521;-82
2023/04/02 03:50:14;;;;;;;7.57;1.60;;;1.00;99.90;;;;;;5082515;28;20082;-82
2023/04/02 03:52:41;;;;;;;3.63;1.33;;;1.00;99.90;;;;;;5112636;28;20450;-82
2023/04/02 03:55:19;;;;;;;3.88;1.33;;;1.00;99.90;;;;;;5112284;28;20821;-82
2023/04/02 03:57:57;;;;;;;3.33;1.40;;;1.00;99.90;;;;;;5112528;28;20094;-82
2023/04/02 04:00:38;;;;;;;6.78;1.30;;;1.50;99.90;;;;;;5129041;28;20036;-82
2023/04/02 04:03:13;;;;;;;6.82;1.80;;;1.00;99.90;;;;;;5132678;28;20036;-82
2023/04/02 04:06:13;;;;;;;4.65;1.25;;;1.50;99.90;;;;;;5132510;28;20518;-82
2023/04/02 04:08:49;;;;;;;6.75;1.52;;;1.00;99.90;;;;;;5132459;28;20035;-83
2023/04/02 04:11:21;;;;;;;3.55;1.33;;;1.10;99.90;;;;;;5132570;28;20088;-83
2023/04/02 04:13:56;;;;;;;7.05;1.73;;;1.00;99.90;;;;;;5132694;28;20039;-82
2023/04/02 04:16:33;;;;;;;3.55;1.27;;;1.60;99.90;;;;;;5132029;28;20055;-82
2023/04/02 04:19:09;;;;;;;4.00;1.60;;;0.90;99.90;;;;;;5132589;28;20110;-82
2023/04/02 04:21:36;;;;;;;7.20;1.90;;;0.90;99.90;;;;;;5131969;28;20039;-82
2023/04/02 04:24:06;;;;;;;4.43;1.58;;;0.80;99.90;;;;;;5115469;28;20046;-82
2023/04/02 04:26:52;;;;;;;6.15;1.33;;;0.80;99.90;;;;;;5132156;28;20066;-82
2023/04/02 04:29:31;;;;;;;5.63;1.50;;;0.90;99.90;;;;;;5117203;28;20074;-83
2023/04/02 04:32:15;;;;;;;6.93;1.20;;;0.70;99.90;;;;;;5112114;28;20040;-82
2023/04/02 04:34:50;;;;;;;6.20;1.45;;;0.70;99.90;;;;;;5111741;28;20094;-82
2023/04/02 04:37:24;;;;;;;4.32;1.23;;;1.00;99.90;;;;;;5112003;28;20089;-82
2023/04/02 04:40:10;;;;;;;7.22;1.60;;;1.50;99.90;;;;;;5111543;28;20435;-82
2023/04/02 04:42:40;;;;;;;5.88;1.52;;;1.00;99.90;;;;;;5111276;28;20123;-82
2023/04/02 04:45:25;;;;;;;7.60;1.35;;;0.80;99.90;;;;;;5111312;28;20400;-82
2023/04/02 04:48:09;;;;;;;5.10;1.45;;;0.60;99.90;;;;;;5128157;28;20039;-82
2023/04/02 04:50:53;;;;;;;6.15;1.40;;;0.70;99.90;;;;;;5144384;28;20042;-82
2023/04/02 04:53:23;;;;;;;7.90;1.83;;;0.70;99.90;;;;;;5131367;28;20403;-83
2023/04/02 04:55:58;;;;;;;5.40;1.50;;;0.90;99.90;;;;;;5131367;28;20046;-82
2023/04/02 04:58:34;;;;;;;4.57;1.50;;;0.70;99.90;;;;;;5148706;28;20071;-82
2023/04/02 05:01:12;;;;;;;5.68;1.58;;;0.60;99.90;;;;;;5117228;28;20036;-82
2023/04/02 05:03:54;;;;;;;3.95;1.40;;;0.60;99.90;;;;;;5110563;28;20036;-82
2023/04/02 05:06:30;;;;;;;6.45;1.60;;;0.60;99.90;;;;;;5127942;28;20048;-82
2023/04/02 05:09:04;;;;;;;4.30;1.30;;;0.60;99.90;;;;;;5111025;28;20040;-82
2023/04/02 05:11:38;;;;;;;6.82;1.70;;;0.60;99.90;;;;;;5111080;28;20051;-82
2023/04/02 05:14:14;;;;;;;4.65;1.38;;;0.80;99.90;;;;;;5111104;28;20062;-82
2023/04/02 05:16:45;;;;;;;;;;;0.50;99.90;;;;;;5111092;28;20086;-82
2023/04/02 05:19:20;;;;;;;5.20;1.75;;;0.50;99.90;;;;;;5110700;28;19967;-82
2023/04/02 05:22:07;;;;;;;11.17;2.50;;;0.50;99.90;;;;;;5110809;28;20046;-82
2023/04/02 05:24:50;;;;;;;4.93;1.40;;;0.50;99.90;;;;;;5110454;28;20044;-82
2023/04/02 05:27:40;;;;;;;4.95;1.30;;;0.50;99.90;;;;;;5110764;28;20514;-82
2023/04/02 05:30:13;;;;;;;5.82;1.45;;;0.50;99.90;;;;;;5110889;28;20044;-82
2023/04/02 05:32:46;;;;;;;5.07;1.67;;;0.50;99.90;;;;;;5110763;28;20040;-82
2023/04/02 05:35:16;;;;;;;5.07;1.50;;;0.60;99.90;;;;;;5110686;28;20123;-82
2023/04/02 05:37:44;;;;;;;4.72;1.30;;;0.50;99.90;;;;;;5127127;28;20036;-82
2023/04/02 05:40:26;;;;;;;4.97;1.58;;;0.60;99.90;;;;;;5094373;28;20032;-81
2023/04/02 05:42:54;;;;;;;3.80;1.42;;;0.60;99.90;;;;;;5128099;28;20484;-81
2023/04/02 05:45:35;;;;;;;3.50;1.30;;;0.60;99.90;;;;;;5131426;28;20114;-82
2023/04/02 05:48:26;;;;;;;4.95;1.27;;;0.60;99.90;;;;;;5130883;28;20065;-82
2023/04/02 05:50:56;;;;;;;4.32;1.83;;;0.70;99.90;;;;;;5147469;28;20039;-82
2023/04/02 05:53:40;;;;;;;4.72;1.40;;;0.70;99.90;;;;;;5111430;28;20062;-81
2023/04/02 05:56:30;;;;;;;5.93;1.75;;;0.80;99.90;;;;;;5109528;28;20497;-81
2023/04/02 05:59:20;;;;;;;7.00;1.30;;;0.70;99.90;;;;;;5127078;28;20040;-81
2023/04/02 06:02:17;;;;;;;3.55;1.17;;;1.50;99.90;;;;;;5106859;28;20066;-81
2023/04/02 06:04:56;;;;;;;5.45;1.55;;;0.90;99.90;;;;;;5147071;28;20039;-81
2023/04/02 06:07:47;;;;;;;6.90;1.50;;;1.00;99.90;;;;;;5130237;28;20043;-81
2023/04/02 06:10:21;;;;;;;8.15;1.90;;;1.00;99.90;;;;;;5119620;28;20047;-81
2023/04/02 06:12:59;;;;;;;6.78;1.20;;;1.10;99.90;;;;;;5125244;28;20549;-82
2023/04/02 06:15:25;;;;;;;2.80;1.10;;;1.30;99.90;;;;;;5109514;28;20044;-83
2023/04/02 06:18:10;;;;;;;5.40;1.50;;;1.40;99.90;;;;;;5092671;28;20419;-84
2023/04/02 06:20:36;;;;;;;10.40;1.63;;;1.30;99.90;;;;;;5126472;28;20043;-83
2023/04/02 06:23:03;;;;;;;6.10;1.92;;;1.40;99.90;;;;;;5097165;28;20031;-82
2023/04/02 06:25:45;;;;;;;3.83;1.35;;;1.40;99.90;;;;;;5127900;28;20036;-82
2023/04/02 06:28:23;;;;;;;5.88;1.23;;;1.50;99.90;;;;;;5109499;28;20042;-82
2023/04/02 06:30:56;;;;;;;6.22;1.50;;;1.60;99.90;;;;;;5109442;28;20043;-82
2023/04/02 06:33:23;;;;;;;3.55;1.63;;;1.70;99.90;;;;;;5127786;28;20181;-83
2023/04/02 06:35:51;;;;;;;5.70;1.23;;;1.70;99.90;;;;;;5088347;28;20174;-82
2023/04/02 06:38:22;;;;;;;3.80;1.40;;;2.50;99.90;;;;;;5092410;28;20044;-83
2023/04/02 06:40:56;;;;;;;6.32;1.35;;;1.80;99.90;;;;;;5120736;28;20040;-82
2023/04/02 06:43:46;;;;;;;4.30;1.70;;;1.80;99.90;;;;;;5112097;28;20035;-82
2023/04/02 06:46:39;;;;;;;3.58;1.23;;;1.90;99.90;;;;;;5109246;28;20043;-83
2023/04/02 06:49:19;;;;;;;5.45;1.40;;;2.00;99.90;;;;;;5128810;28;20404;-82
2023/04/02 06:51:48;;;;;;;6.63;1.48;;;2.00;99.90;;;;;;5125805;28;20040;-82
2023/04/02 06:54:16;;;;;;;5.57;1.30;;;2.00;99.90;;;;;;5109452;28;20094;-83
2023/04/02 06:56:48;;;;;;;2.80;1.20;;;2.20;99.90;;;;;;5125291;28;20043;-82
2023/04/02 06:59:15;;;;;;;4.63;1.30;;;2.40;99.90;;;;;;5109419;28;20044;-83
2023/04/02 07:02:05;;;;;;;4.00;1.30;;;2.20;99.90;;;;;;5108522;28;20043;-83
2023/04/02 07:04:32;;;;;;;6.65;1.60;;;2.30;99.90;;;;;;5109286;28;20450;-83
2023/04/02 07:06:59;;;;;;;6.47;1.45;;;2.30;99.90;;;;;;5119378;28;20048;-83
2023/04/02 07:09:26;;;;;;;6.45;1.33;;;2.40;99.90;;;;;;5117402;28;20040;-81
2023/04/02 07:11:52;;;;;;;6.40;1.20;;;2.40;99.90;;;;;;5113498;28;20530;-82
2023/04/02 07:14:19;;;;;;;8.10;1.52;;;2.80;99.90;;;;;;5127800;28;20042;-83
2023/04/02 07:16:46;;;;;;;3.42;1.33;;;2.50;99.90;;;;;;5104907;28;20085;-82
2023/04/02 07:19:21;;;;;;;6.05;1.25;;;2.60;99.90;;;;;;5129984;28;20122;-82
2023/04/02 07:21:48;;;;;;;4.00;1.53;;;3.00;99.90;;;;;;5129559;28;20040;-83
2023/04/02 07:24:15;;;;;;;6.47;1.48;;;2.70;99.90;;;;;;5095834;28;20109;-83
2023/04/02 07:26:42;;;;;;;5.53;1.27;;;2.70;99.90;;;;;;5079103;28;20036;-83
2023/04/02 07:29:14;;;;;;;4.60;1.20;;;2.80;99.90;;;;;;5096208;28;20648;-83
2023/04/02 07:31:40;;;;;;;8.07;1.40;;;3.60;99.90;;;;;;5112241;28;20407;-82
2023/04/02 07:34:08;;;;;;;4.32;1.75;;;3.00;99.90;;;;;;5079318;28;20036;-82
2023/04/02 07:36:35;;;;;;;3.40;1.20;;;3.10;99.90;;;;;;5129386;28;20043;-84
2023/04/02 07:39:03;;;;;;;3.50;1.30;;;3.30;99.90;;;;;;5114518;28;20043;-85
2023/04/02 07:41:29;;;;;;;8.02;1.50;;;3.20;99.90;;;;;;5133199;28;20039;-84
2023/04/02 07:43:56;;;;;;;4.50;1.20;;;3.30;99.90;;;;;;5132969;28;20051;-84
2023/04/02 07:46:24;;;;;;;3.83;1.23;;;3.50;99.90;;;;;;5116184;28;20150;-84
2023/04/02 07:48:51;;;;;;;7.78;1.23;;;3.50;99.90;;;;;;5116106;28;20096;-84
2023/04/02 07:51:20;;;;;;;6.30;1.20;;;3.50;99.90;;;;;;5099280;28;20043;-84
2023/04/02 07:53:54;;;;;;;4.80;1.30;;;3.60;99.90;;;;;;5115465;28;20446;-84
2023/04/02 07:56:22;;;;;;;5.32;1.40;;;3.80;99.90;;;;;;5100724;28;20046;-84
2023/04/02 07:58:49;;;;;;;4.68;1.30;;;3.90;99.90;;;;;;5114498;28;20040;-84
2023/04/02 08:01:26;;;;;;;4.68;1.05;;;3.90;99.90;;;;;;5088335;28;20514;-83
2023/04/02 08:03:54;;;;;;;4.15;0.80;;;3.90;99.90;;;;;;5108869;28;20902;-84
2023/04/02 08:06:22;;;;;;;3.83;1.25;;;3.90;99.90;;;;;;5095711;28;20043;-84
2023/04/02 08:08:49;;;;;;;5.35;1.10;;;4.00;99.90;;;;;;5094819;28;20050;-84
2023/04/02 08:11:16;;;;;;;1.92;1.00;;;4.30;99.90;;;;;;5095442;28;20391;-84
2023/04/02 08:13:43;;;;;;;6.90;1.30;;;4.20;99.90;;;;;;5095571;28;20040;-84
2023/04/02 08:16:10;;;;;;;4.55;1.20;;;4.80;99.90;;;;;;5101669;28;20091;-83
2023/04/02 08:18:38;;;;;;;4.50;1.05;;;4.30;99.90;;;;;;5094724;28;20047;-84
2023/04/02 08:21:07;;;;;;;5.03;1.23;;;4.50;99.90;;;;;;5111336;28;20872;-84
2023/04/02 08:23:35;;;;;;;3.30;1.10;;;4.50;99.90;;;;;;5096085;28;20065;-85
2023/04/02 08:26:02;;;;;;;5.90;1.17;;;4.40;99.90;;;;;;5131540;28;20452;-85
2023/04/02 08:28:29;;;;;;;3.85;0.98;;;4.30;99.90;;;;;;5132043;28;20078;-85
2023/04/02 08:30:56;;;;;;;4.07;1.08;;;4.30;99.90;;;;;;5131057;28;20461;-85
2023/04/02 08:33:23;;;;;;;5.53;1.38;;;4.30;99.90;;;;;;5098170;28;20044;-83
2023/04/02 08:35:49;;;;;;;3.03;0.90;;;4.40;99.90;;;;;;5125413;28;20055;-85
2023/04/02 08:38:20;;;;;;;3.22;1.02;;;4.50;99.90;;;;;;5108370;28;20036;-82
2023/04/02 08:40:53;;;;;;;8.85;1.50;;;4.60;99.90;;;;;;5116599;28;20032;-83
2023/04/02 08:43:20;;;;;;;6.28;1.40;;;5.20;99.90;;;;;;5132179;28;20043;-84
2023/04/02 08:46:25;;;;;;;4.18;1.05;;;5.00;99.90;;;;;;5132201;28;20093;-84
2023/04/02 08:48:56;;;;;;;4.95;1.08;;;5.20;99.90;;;;;;5148290;28;20089;-85
2023/04/02 08:51:26;;;;;;;3.47;1.13;;;5.40;99.90;;;;;;5132105;28;20073;-84
2023/04/02 08:53:58;;;;;;;3.53;0.80;;;5.60;99.90;;;;;;5130925;28;20099;-85
2023/04/02 08:56:35;;;;;;;5.50;1.10;;;5.70;99.90;;;;;;5111687;28;20048;-84
2023/04/02 08:59:37;;;;;;;4.78;1.08;;;5.80;99.90;;;;;;5111234;28;20507;-84
2023/04/02 09:02:36;;;;;;;4.40;0.90;;;6.00;99.90;;;;;;5110984;28;20700;-84
2023/04/02 09:05:06;;;;;;;5.45;1.30;;;6.00;99.90;;;;;;5111006;28;20124;-84
2023/04/02 09:07:33;;;;;;;3.47;1.15;;;5.90;99.90;;;;;;5116097;28;20039;-84
2023/04/02 09:10:01;;;;;;;3.88;1.00;;;6.10;99.90;;;;;;5114083;28;20054;-84
2023/04/02 09:12:31;;;;;;;2.92;1.10;;;6.10;99.90;;;;;;5114456;28;20040;-84
2023/04/02 09:15:03;;;;;;;4.53;1.30;;;6.20;99.90;;;;;;5130837;28;20411;-85
2023/04/02 09:17:30;;;;;;;4.03;1.23;;;6.20;99.90;;;;;;5130807;28;20056;-84
2023/04/02 09:20:17;;;;;;;6.03;1.13;;;6.30;99.90;;;;;;5084241;28;20051;-85
2023/04/02 09:22:50;;;;;;;3.17;1.00;;;6.10;99.90;;;;;;5111190;28;20036;-84
2023/04/02 09:25:24;;;;;;;4.40;1.23;;;6.30;99.90;;;;;;5110658;28;20508;-84
2023/04/02 09:27:53;;;;;;;4.97;1.33;;;6.40;99.90;;;;;;5127584;28;20036;-84
2023/04/02 09:30:32;;;;;;;4.13;1.10;;;6.50;99.90;;;;;;5109598;28;20036;-84
2023/04/02 09:33:07;;;;;;;3.05;1.02;;;6.50;99.90;;;;;;5129192;28;20073;-85
2023/04/02 09:35:35;;;;;;;;;;;6.60;99.90;;;;;;5115251;28;20047;-85
2023/04/02 09:38:16;;;;;;;3.55;0.93;;;6.70;99.90;;;;;;5130645;28;20394;-85
2023/04/02 09:40:57;;;;;;;6.35;1.10;;;6.80;99.90;;;;;;5131265;28;20043;-84
2023/04/02 09:43:27;;;;;;;2.60;0.80;;;6.80;99.90;;;;;;5130712;28;20047;-84
2023/04/02 09:46:12;;;;;;;5.28;1.02;;;6.70;99.90;;;;;;5110587;28;20055;-84
2023/04/02 09:48:52;;;;;;;3.58;1.10;;;6.80;99.90;;;;;;5110142;28;20056;-84
2023/04/02 09:51:25;;;;;;;4.43;1.30;;;6.90;99.90;;;;;;5110145;28;20620;-85
2023/04/02 09:54:11;;;;;;;4.35;1.08;;;7.00;99.90;;;;;;5110448;28;20040;-85
2023/04/02 09:57:01;;;;;;;3.95;1.00;;;7.20;99.90;;;;;;5114033;28;20496;-84
2023/04/02 09:59:29;;;;;;;3.75;1.63;;;7.30;99.90;;;;;;5130303;28;20077;-85
2023/04/02 10:02:03;;;;;;;5.70;1.35;;;7.40;99.90;;;;;;5117099;28;20119;-84
2023/04/02 10:04:46;;;;;;;3.60;0.98;;;7.50;99.90;;;;;;5127965;28;20123;-85
2023/04/02 10:07:46;;;;;;;2.67;0.90;;;7.60;99.90;;;;;;5130595;28;20043;-85
2023/04/02 10:10:30;;;;;;;3.53;1.13;;;7.80;99.90;;;;;;5117739;28;20039;-84
2023/04/02 10:13:13;;;;;;;3.50;1.35;;;7.80;99.90;;;;;;5129659;28;20568;-84
2023/04/02 10:15:45;;;;;;;2.88;0.93;;;7.80;99.90;;;;;;5109760;28;20043;-84
2023/04/02 10:18:38;;;;;;;3.47;0.85;;;7.80;99.90;;;;;;5186566;27;20367;-84
2023/04/02 10:21:09;;;;;;;3.97;1.92;;;7.60;99.90;;;;;;5130887;28;20042;-84
2023/04/02 10:23:35;;;;;;;3.03;0.90;;;7.60;99.90;;;;;;5131009;28;20365;-83
2023/04/02 10:26:19;;;;;;;3.40;0.88;;;7.60;99.90;;;;;;5097071;28;20089;-84
2023/04/02 10:29:29;;;;;;;2.75;1.00;;;7.60;99.90;;;;;;5130968;28;20036;-84
2023/04/02 10:32:15;;;;;;;3.72;0.90;;;7.80;99.90;;;;;;5083466;28;20044;-84
2023/04/02 10:35:18;;;;;;;2.97;0.60;;;8.10;99.90;;;;;;5130405;28;20069;-84
2023/04/02 10:37:46;;;;;;;3.40;0.80;;;8.20;99.90;;;;;;5114543;28;20385;-84
2023/04/02 10:40:31;;;;;;;1.58;0.80;;;8.30;99.90;;;;;;5147145;28;20032;-84
2023/04/02 10:43:25;;;;;;;3.75;0.98;;;8.30;99.90;;;;;;5130552;28;20075;-84
2023/04/02 10:45:55;;;;;;;4.07;0.80;;;8.40;99.90;;;;;;5109599;28;20404;-84
2023/04/02 10:49:01;;;;;;;2.40;0.90;;;8.60;99.90;;;;;;5126498;28;20040;-83
2023/04/02 10:51:40;;;;;;;4.55;0.80;;;8.60;99.90;;;;;;5055170;28;20067;-84
2023/04/02 10:54:23;;;;;;;1.50;0.70;;;8.70;99.90;;;;;;5109979;28;20703;-84
2023/04/02 10:56:52;;;;;;;3.00;0.85;;;8.70;99.90;;;;;;5126735;28;20038;-84
2023/04/02 10:59:26;;;;;;;3.00;0.82;;;8.80;99.90;;;;;;5092960;28;20039;-84
2023/04/02 11:01:58;;;;;;;3.38;1.00;;;8.70;99.90;;;;;;5109634;28;20097;-84
2023/04/02 11:04:31;;;;;;;3.65;1.40;;;8.90;99.90;;;;;;5121922;28;20032;-84
2023/04/02 11:07:03;;;;;;;5.70;1.00;;;8.90;99.90;;;;;;5130155;28;20046;-84
2023/04/02 11:09:36;;;;;;;4.35;0.93;;;8.90;99.90;;;;;;5146885;28;20039;-84
2023/04/02 11:12:05;;;;;;;2.35;0.77;;;8.90;99.90;;;;;;5145225;28;20067;-84
2023/04/02 11:14:32;;;;;;;5.00;0.80;;;8.80;99.90;;;;;;5108905;28;20050;-84
2023/04/02 11:17:02;;;;;;;2.28;0.77;;;8.70;99.90;;;;;;5092814;28;20051;-83
2023/04/02 11:19:33;;;;;;;2.42;0.80;;;8.60;99.90;;;;;;5092774;28;20036;-84
2023/04/02 11:22:13;;;;;;;3.05;0.73;;;8.60;99.90;;;;;;5109262;28;20067;-83
2023/04/02 11:24:44;;;;;;;1.92;0.60;;;8.70;99.90;;;;;;5109523;28;20031;-84
2023/04/02 11:27:11;;;;;;;2.35;0.75;;;8.50;99.90;;;;;;5109048;28;20140;-84
2023/04/02 11:29:54;;;;;;;5.53;0.80;;;8.40;99.90;;;;;;5096396;28;20127;-84
2023/04/02 11:32:23;;;;;;;3.10;0.80;;;8.30;99.90;;;;;;5112101;28;20051;-84
2023/04/02 11:34:50;;;;;;;3.60;0.90;;;8.50;99.90;;;;;;5095642;28;20036;-84
2023/04/02 11:37:42;;;;;;;5.20;0.95;;;8.50;99.90;;;;;;5095089;28;20048;-84
2023/04/02 11:40:12;;;;;;;3.65;0.90;;;8.40;99.90;;;;;;5095423;28;20405;-83
2023/04/02 11:42:44;;;;;;;1.92;0.70;;;8.40;99.90;;;;;;5095196;28;20040;-84
2023/04/02 11:45:20;;;;;;;2.95;0.88;;;8.60;99.90;;;;;;5095316;28;20062;-83
2023/04/02 11:48:07;;;;;;;4.03;1.00;;;8.70;99.90;;;;;;5112108;28;20403;-84
2023/04/02 11:50:36;;;;;;;3.65;1.00;;;8.70;99.90;;;;;;5095112;28;20052;-83
2023/04/02 11:53:09;;;;;;;2.13;0.70;;;8.80;99.90;;;;;;5111913;28;20054;-84
2023/04/02 11:55:41;;;;;;;1.55;0.82;;;8.90;99.90;;;;;;5095046;28;20847;-84
2023/04/02 11:58:19;;;;;;;3.35;0.80;;;8.90;99.90;;;;;;5095190;28;20552;-83
2023/04/02 12:01:06;;;;;;;5.32;1.05;;;8.80;99.90;;;;;;5094955;28;20072;-83
2023/04/02 12:03:52;;;;;;;2.17;0.90;;;8.70;99.90;;;;;;5095219;28;20137;-84
2023/04/02 12:06:38;;;;;;;3.03;0.70;;;8.70;99.90;;;;;;5094755;28;20494;-84
2023/04/02 12:09:17;;;;;;;1.38;0.75;;;8.50;99.90;;;;;;5095509;28;20048;-83
2023/04/02 12:11:46;;;;;;;2.92;0.90;;;8.50;99.90;;;;;;5094961;28;20075;-83
2023/04/02 12:14:34;;;;;;;3.42;0.80;;;8.60;99.90;;;;;;5078877;28;20043;-83
2023/04/02 12:17:17;;;;;;;1.83;0.73;;;8.70;99.90;;;;;;5111106;28;20052;-84
2023/04/02 12:19:50;;;;;;;3.75;0.80;;;8.90;99.90;;;;;;5094680;28;20536;-83
2023/04/02 12:22:26;;;;;;;1.27;0.68;;;9.00;99.90;;;;;;5094788;28;20126;-83
2023/04/02 12:24:57;;;;;;;1.20;0.68;;;9.10;99.90;;;;;;5094985;28;20040;-83
2023/04/02 12:27:27;;;;;;;1.05;0.60;;;9.10;99.90;;;;;;5111433;28;20047;-84
2023/04/02 12:30:09;;;;;;;3.35;0.90;;;9.00;99.90;;;;;;5094644;28;20047;-83
2023/04/02 12:32:36;;;;;;;2.05;0.70;;;9.00;99.90;;;;;;5094706;28;20050;-83
2023/04/02 12:35:03;;;;;;;2.42;0.80;;;9.00;99.90;;;;;;5061343;28;20036;-84
2023/04/02 12:37:30;;;;;;;3.10;0.80;;;9.00;99.90;;;;;;5078250;28;20040;-84
2023/04/02 12:40:06;;;;;;;3.63;0.77;;;9.10;99.90;;;;;;5093646;28;20032;-83
2023/04/02 12:42:36;;;;;;;1.38;0.70;;;9.20;99.90;;;;;;5094436;28;20075;-83
2023/04/02 12:45:05;;;;;;;1.48;0.80;;;9.20;99.90;;;;;;5110951;28;20396;-83
2023/04/02 12:47:32;;;;;;;2.20;0.77;;;9.40;99.90;;;;;;5084988;28;20403;-84
2023/04/02 12:50:01;;;;;;;2.05;0.70;;;9.30;99.90;;;;;;5081052;28;20035;-83
2023/04/02 12:52:29;;;;;;;2.70;0.82;;;9.40;99.90;;;;;;5097572;28;20047;-84
2023/04/02 12:55:02;;;;;;;1.58;0.57;;;9.30;99.90;;;;;;5114399;28;20050;-83
2023/04/02 12:57:28;;;;;;;2.85;0.80;;;9.40;99.90;;;;;;5130749;28;20385;-84
2023/04/02 12:59:58;;;;;;;1.77;0.70;;;9.30;99.90;;;;;;5114065;28;20046;-83
2023/04/02 13:02:31;;;;;;;2.72;0.80;;;9.10;99.90;;;;;;5097964;28;20496;-83
2023/04/02 13:05:00;;;;;;;2.22;0.75;;;9.10;99.90;;;;;;5114390;28;20424;-83
2023/04/02 13:07:32;;;;;;;1.88;0.75;;;9.10;99.90;;;;;;5114119;28;20043;-83
2023/04/02 13:10:01;;;;;;;4.07;0.80;;;9.10;99.90;;;;;;5097515;28;20483;-83
2023/04/02 13:12:40;;;;;;;1.58;0.70;;;9.20;99.90;;;;;;5097741;28;20063;-83
2023/04/02 13:15:26;;;;;;;2.88;0.70;;;9.20;99.90;;;;;;5113966;28;20450;-83
2023/04/02 13:18:05;;;;;;;1.63;0.70;;;9.20;99.90;;;;;;5107244;28;20052;-83
2023/04/02 13:20:35;;;;;;;2.28;0.80;;;9.20;99.90;;;;;;5106575;28;20044;-84
2023/04/02 13:23:27;;;;;;;1.90;0.77;;;9.20;99.90;;;;;;5090135;28;20040;-83
2023/04/02 13:25:56;;;;;;;4.43;0.95;;;9.20;99.90;;;;;;5077035;28;20036;-84
2023/04/02 13:28:22;;;;;;;2.28;0.70;;;9.20;99.90;;;;;;5090002;28;20036;-83
2023/04/02 13:30:49;;;;;;;2.85;0.80;;;9.10;99.90;;;;;;5089698;28;20047;-84
2023/04/02 13:33:16;;;;;;;2.97;1.17;;;9.00;99.90;;;;;;5089943;28;20087;-83
2023/04/02 13:35:43;;;;;;;3.35;0.80;;;9.00;99.90;;;;;;5073170;28;20109;-83
2023/04/02 13:38:10;;;;;;;0.95;0.60;;;9.10;99.90;;;;;;5073056;28;20491;-83
2023/04/02 13:40:37;;;;;;;3.15;0.88;;;9.10;99.90;;;;;;5074550;28;20046;-84
2023/04/02 13:43:05;;;;;;;1.98;0.70;;;9.10;99.90;;;;;;5089508;28;20040;-83